Sds Green — ICOK — position and weather

sailwx.info

Track history (hours):
 
Tides and Currents Weather Stations Pressure Air Temp Water Temp Dewpoint Dewpoint Depression Visibility Wind Speed Wind Dir Waves Ship Positions

Sds Green

Last reported at 2015-Aug-05 11:23 UTC. Time now 2015-Aug-05 12:29 UTC.
Position N 36°44' E 005°11'.

Length 108 m; draft 7 m.

Type: Cargo ship. MMSI: 247292200.

Date/timePositionNaut miles runAvg speedWind from/ knotsBaromVisibWave heightAir tempDewpointWater temp
2015-Aug-05 11:23N 36°44' E 005°11'0 0.0
2015-Aug-05 10:17N 36°44' E 005°11'0 0.1
2015-Aug-05 08:17N 36°44' E 005°11'0 0.0
2015-Aug-05 07:29N 36°44' E 005°11'0 0.0
2015-Aug-05 00:32N 36°44' E 005°11'0 0.0
2015-Aug-04 23:29N 36°44' E 005°11'0 0.0
2015-Aug-04 21:32N 36°44' E 005°11'0 0.0
2015-Aug-04 04:11N 36°44' E 005°11'0 0.0
2015-Aug-04 02:11N 36°44' E 005°11'0 0.0
2015-Aug-03 15:20N 36°44' E 005°11'  
2015-Jul-29 05:24N 36°44' E 005°11'16 0.6
2015-Jul-28 01:09N 36°54' E 004°56'811.4
2015-Jul-28 00:28N 36°56' E 004°46'1111.5
2015-Jul-27 23:32N 36°59' E 004°33'1111.3
2015-Jul-27 22:33N 37°02' E 004°20'1211.5
2015-Jul-27 21:33N 37°05' E 004°06'1111.0
2015-Jul-27 20:33N 37°05' E 003°52'1111.3
2015-Jul-27 19:33N 37°03' E 003°38'1211.3
2015-Jul-27 18:32N 37°00' E 003°24'1111.4
2015-Jul-27 17:33N 36°58' E 003°10'1211.7
2015-Jul-27 16:33N 36°56' E 002°56'1111.3
2015-Jul-27 15:33N 36°54' E 002°42'1111.2
2015-Jul-27 14:33N 36°51' E 002°29'1211.6
2015-Jul-27 13:33N 36°49' E 002°14'1111.5
2015-Jul-27 12:33N 36°47' E 002°00'1111.2
2015-Jul-27 11:33N 36°45' E 001°46'1111.2
2015-Jul-27 10:33N 36°43' E 001°33'1211.5
2015-Jul-27 09:33N 36°41' E 001°19'1211.8
2015-Jul-27 08:30N 36°39' E 001°03'1212.2
2015-Jul-27 07:33N 36°37' E 000°49'1111.5
2015-Jul-27 06:33N 36°35' E 000°35'1211.6
2015-Jul-27 05:33N 36°34' E 000°21'1211.6
2015-Jul-27 04:33N 36°32' E 000°06'1211.4
2015-Jul-27 03:29N 36°31' W 000°09'1111.4
2015-Jul-27 02:33N 36°29' W 000°22'1111.4
2015-Jul-27 01:33N 36°28' W 000°36'1111.2
2015-Jul-27 00:33N 36°26' W 000°49'1211.4
2015-Jul-26 23:32N 36°25' W 001°04'1311.3
2015-Jul-26 22:24N 36°23' W 001°20'1011.2
2015-Jul-26 21:33N 36°22' W 001°31'  
Track history (hours):
 
Tides and Currents Weather Stations Pressure Air Temp Water Temp Dewpoint Dewpoint Depression Visibility Wind Speed Wind Dir Waves Ship Positions

Sds Green

Last reported at 2015-Aug-05 11:23 UTC. Time now 2015-Aug-05 12:29 UTC.
Position N 36°44' E 005°11'.

Length 108 m; draft 7 m.

Type: Cargo ship. MMSI: 247292200.

Date/timePositionNaut miles runAvg speedWind from/ knotsBaromVisibWave heightAir tempDewpointWater temp
2015-Aug-05 11:23N 36°44' E 005°11'0 0.0
2015-Aug-05 10:17N 36°44' E 005°11'0 0.1
2015-Aug-05 08:17N 36°44' E 005°11'0 0.0
2015-Aug-05 07:29N 36°44' E 005°11'0 0.0
2015-Aug-05 00:32N 36°44' E 005°11'0 0.0
2015-Aug-04 23:29N 36°44' E 005°11'0 0.0
2015-Aug-04 21:32N 36°44' E 005°11'0 0.0
2015-Aug-04 04:11N 36°44' E 005°11'0 0.0
2015-Aug-04 02:11N 36°44' E 005°11'0 0.0
2015-Aug-03 15:20N 36°44' E 005°11'  
2015-Jul-29 05:24N 36°44' E 005°11'16 0.6
2015-Jul-28 01:09N 36°54' E 004°56'811.4
2015-Jul-28 00:28N 36°56' E 004°46'1111.5
2015-Jul-27 23:32N 36°59' E 004°33'1111.3
2015-Jul-27 22:33N 37°02' E 004°20'1211.5
2015-Jul-27 21:33N 37°05' E 004°06'1111.0
2015-Jul-27 20:33N 37°05' E 003°52'1111.3
2015-Jul-27 19:33N 37°03' E 003°38'1211.3
2015-Jul-27 18:32N 37°00' E 003°24'1111.4
2015-Jul-27 17:33N 36°58' E 003°10'1211.7
2015-Jul-27 16:33N 36°56' E 002°56'1111.3
2015-Jul-27 15:33N 36°54' E 002°42'1111.2
2015-Jul-27 14:33N 36°51' E 002°29'1211.6
2015-Jul-27 13:33N 36°49' E 002°14'1111.5
2015-Jul-27 12:33N 36°47' E 002°00'1111.2
2015-Jul-27 11:33N 36°45' E 001°46'1111.2
2015-Jul-27 10:33N 36°43' E 001°33'1211.5
2015-Jul-27 09:33N 36°41' E 001°19'1211.8
2015-Jul-27 08:30N 36°39' E 001°03'1212.2
2015-Jul-27 07:33N 36°37' E 000°49'1111.5
2015-Jul-27 06:33N 36°35' E 000°35'1211.6
2015-Jul-27 05:33N 36°34' E 000°21'1211.6
2015-Jul-27 04:33N 36°32' E 000°06'1211.4
2015-Jul-27 03:29N 36°31' W 000°09'1111.4
2015-Jul-27 02:33N 36°29' W 000°22'1111.4
2015-Jul-27 01:33N 36°28' W 000°36'1111.2
2015-Jul-27 00:33N 36°26' W 000°49'1211.4
2015-Jul-26 23:32N 36°25' W 001°04'1311.3
2015-Jul-26 22:24N 36°23' W 001°20'1011.2
2015-Jul-26 21:33N 36°22' W 001°31'  

Dump ship's entire track history